Time;durP1;ratioP1;P1;durP2;ratioP2;P2;SDS_P1;SDS_P2;PMS_P1;PMS_P2;Temp;Humidity;BMP_temperature;BMP_pressure;BME280_temperature;BME280_humidity;BME280_pressure;Samples;Min_cycle;Max_cycle;Signal;HPM_P1;HPM_P2
2023/03/23 00:04:37;;;;;;;10.55;9.55;;;;;;;9.56;100.00;100272.25;10305201;28;20461;-75
2023/03/23 00:10:16;;;;;;;15.00;10.90;;;;;;;9.51;100.00;100272.44;10301935;28;20105;-78
2023/03/23 00:17:05;;;;;;;12.25;10.38;;;;;;;9.43;100.00;100272.13;10337372;28;20043;-76
2023/03/23 00:23:22;;;;;;;15.07;13.25;;;;;;;9.41;100.00;100279.03;10288955;28;20037;-78
2023/03/23 00:29:04;;;;;;;14.02;11.60;;;;;;;9.37;100.00;100267.94;10184256;28;20523;-73
2023/03/23 00:34:03;;;;;;;13.63;12.23;;;;;;;9.35;100.00;100253.00;10217920;28;20056;-74
2023/03/23 00:39:00;;;;;;;15.73;12.25;;;;;;;9.36;100.00;100257.34;10295615;28;20118;-74
2023/03/23 00:43:56;;;;;;;20.55;15.05;;;;;;;9.34;100.00;100246.75;10304695;28;20507;-74
2023/03/23 00:48:52;;;;;;;15.85;13.55;;;;;;;9.34;100.00;100233.13;10300033;28;20037;-73
2023/03/23 00:53:47;;;;;;;19.40;12.93;;;;;;;9.31;100.00;100225.56;10306198;28;20068;-73
2023/03/23 00:58:43;;;;;;;14.00;12.55;;;;;;;9.29;100.00;100203.28;10291426;28;20036;-72
2023/03/23 01:03:41;;;;;;;14.95;12.77;;;;;;;9.29;100.00;100206.00;10281329;28;20096;-78
2023/03/23 01:08:44;;;;;;;17.67;13.30;;;;;;;9.28;100.00;100204.38;10298681;28;20044;-74
2023/03/23 01:13:41;;;;;;;16.45;12.98;;;;;;;9.26;100.00;100195.72;10289387;28;20048;-73
2023/03/23 01:18:37;;;;;;;14.35;12.40;;;;;;;9.22;100.00;100178.41;10308593;28;20709;-74
2023/03/23 01:23:37;;;;;;;17.02;13.77;;;;;;;9.21;100.00;100165.88;10284505;28;20066;-76
2023/03/23 01:28:35;;;;;;;17.13;13.88;;;;;;;9.19;100.00;100173.56;10279335;28;20059;-76
2023/03/23 01:33:32;;;;;;;16.05;13.75;;;;;;;9.19;100.00;100168.94;10284295;28;20044;-76
2023/03/23 01:38:33;;;;;;;18.83;15.02;;;;;;;9.23;100.00;100169.09;10296567;28;20045;-75
2023/03/23 01:43:29;;;;;;;19.30;15.43;;;;;;;9.22;100.00;100160.09;10281139;28;20520;-71
2023/03/23 01:48:29;;;;;;;17.65;14.23;;;;;;;9.20;100.00;100147.91;10282595;28;20072;-71
2023/03/23 01:53:32;;;;;;;19.48;14.07;;;;;;;9.19;100.00;100136.22;10301223;28;20052;-73
2023/03/23 01:58:33;;;;;;;23.85;15.15;;;;;;;9.21;100.00;100138.59;10305029;28;20048;-76
2023/03/23 02:03:31;;;;;;;19.58;15.07;;;;;;;9.22;100.00;100129.31;10302098;28;20101;-78
2023/03/23 02:08:28;;;;;;;23.20;16.00;;;;;;;9.18;100.00;100114.69;10282576;28;20036;-75
2023/03/23 02:13:25;;;;;;;23.17;14.63;;;;;;;9.17;100.00;100118.56;10302443;28;20098;-76
2023/03/23 02:18:46;;;;;;;18.10;13.52;;;;;;;9.20;100.00;100121.44;10301428;28;20087;-75
2023/03/23 02:24:07;;;;;;;22.85;15.07;;;;;;;9.23;100.00;100115.31;10293025;28;20181;-75
2023/03/23 02:29:29;;;;;;;19.98;14.27;;;;;;;9.25;100.00;100112.28;10299947;28;20419;-74
2023/03/23 02:34:29;;;;;;;17.52;12.10;;;;;;;9.29;100.00;100101.53;10292679;28;20047;-77
2023/03/23 02:39:41;;;;;;;17.52;13.32;;;;;;;9.31;100.00;100097.34;10298959;28;20028;-76
2023/03/23 02:44:41;;;;;;;16.55;12.07;;;;;;;9.33;100.00;100092.38;10305111;28;20051;-78
2023/03/23 02:49:40;;;;;;;15.68;12.40;;;;;;;9.35;100.00;100090.13;10299718;28;20577;-73
2023/03/23 02:54:36;;;;;;;15.55;11.80;;;;;;;9.39;100.00;100074.69;10313648;28;20048;-73
2023/03/23 02:59:32;;;;;;;15.65;12.32;;;;;;;9.40;100.00;100081.75;10300982;28;20113;-76
2023/03/23 03:04:33;;;;;;;15.60;10.82;;;;;;;9.46;100.00;100074.19;10304285;28;20150;-72
2023/03/23 03:09:47;;;;;;;10.32;8.98;;;;;;;9.47;100.00;100060.22;10302439;28;20490;-72
2023/03/23 03:14:55;;;;;;;13.43;10.48;;;;;;;9.48;100.00;100056.38;10302170;28;20047;-72
2023/03/23 03:19:57;;;;;;;13.98;11.20;;;;;;;9.52;100.00;100047.53;10307865;28;20036;-72
2023/03/23 03:24:56;;;;;;;12.70;10.93;;;;;;;9.55;100.00;100049.63;10301842;28;20402;-74
2023/03/23 03:29:56;;;;;;;13.75;12.35;;;;;;;9.55;100.00;100006.75;10317162;28;20047;-75
2023/03/23 03:34:52;;;;;;;13.27;11.20;;;;;;;9.51;100.00;100010.44;10308536;28;20095;-70
2023/03/23 03:39:47;;;;;;;16.20;13.55;;;;;;;9.50;100.00;100006.94;10282214;28;20137;-76
2023/03/23 03:44:43;;;;;;;14.57;12.40;;;;;;;9.56;100.00;100002.06;10300317;28;20056;-76
2023/03/23 03:49:38;;;;;;;14.32;12.85;;;;;;;9.59;100.00;100001.44;10303971;28;20068;-75
2023/03/23 03:54:34;;;;;;;15.02;12.60;;;;;;;9.60;100.00;100013.94;10279997;28;20461;-74
2023/03/23 03:59:30;;;;;;;16.98;13.68;;;;;;;9.63;100.00;100029.66;10310324;28;20033;-79
2023/03/23 04:04:26;;;;;;;15.88;13.10;;;;;;;9.67;100.00;100019.69;10301017;28;20128;-78
2023/03/23 04:09:21;;;;;;;16.33;12.55;;;;;;;9.72;100.00;100005.84;10300618;28;20083;-74
2023/03/23 04:14:16;;;;;;;15.45;12.05;;;;;;;9.76;100.00;100006.78;10303513;28;20083;-77
2023/03/23 04:19:12;;;;;;;13.32;11.95;;;;;;;9.79;100.00;100011.59;10296180;28;20084;-72
2023/03/23 04:24:07;;;;;;;13.68;12.32;;;;;;;9.79;100.00;100016.25;10283207;28;20499;-72
2023/03/23 04:29:03;;;;;;;15.02;13.43;;;;;;;9.89;100.00;100022.16;10292567;28;20151;-72
2023/03/23 04:33:59;;;;;;;13.75;12.02;;;;;;;9.77;100.00;100004.84;10301205;28;20064;-73
2023/03/23 04:38:55;;;;;;;14.77;12.35;;;;;;;9.72;100.00;100027.69;10291278;28;20502;-72
2023/03/23 04:43:53;;;;;;;17.40;13.60;;;;;;;9.67;100.00;100008.78;10296051;28;20041;-77
2023/03/23 04:48:48;;;;;;;15.13;13.52;;;;;;;9.68;100.00;100015.84;10294494;28;20075;-77
2023/03/23 04:53:43;;;;;;;14.20;12.65;;;;;;;9.71;100.00;100007.00;10287744;28;20496;-77
2023/03/23 04:58:40;;;;;;;15.52;14.00;;;;;;;9.76;100.00;100006.78;10301780;28;20072;-77
2023/03/23 05:03:36;;;;;;;14.93;13.43;;;;;;;9.73;100.00;99996.53;10287863;28;20131;-78
2023/03/23 05:08:32;;;;;;;16.60;13.43;;;;;;;9.80;100.00;99996.03;10306454;28;20063;-79
2023/03/23 05:13:28;;;;;;;15.73;12.98;;;;;;;9.90;100.00;100007.34;10288048;28;20056;-78
2023/03/23 05:18:24;;;;;;;14.80;13.18;;;;;;;9.88;100.00;99997.88;10300378;28;20045;-78
2023/03/23 05:23:24;;;;;;;15.68;13.82;;;;;;;9.98;100.00;99988.50;10303445;28;20529;-76
2023/03/23 05:28:21;;;;;;;14.48;12.85;;;;;;;10.00;100.00;99984.34;10277549;28;20033;-76
2023/03/23 05:33:17;;;;;;;15.18;13.68;;;;;;;10.01;100.00;100006.97;10291703;28;20127;-76
2023/03/23 05:38:14;;;;;;;13.98;12.40;;;;;;;10.05;100.00;99991.53;10301980;28;20160;-75
2023/03/23 05:43:10;;;;;;;13.00;11.60;;;;;;;10.06;100.00;100004.06;10287804;28;20514;-77
2023/03/23 05:48:06;;;;;;;17.65;11.75;;;;;;;9.97;100.00;99995.13;10280881;28;20047;-76
2023/03/23 05:53:03;;;;;;;13.45;12.00;;;;;;;9.96;100.00;99977.16;10291838;28;20075;-77
2023/03/23 05:57:59;;;;;;;13.52;10.98;;;;;;;9.93;100.00;99983.25;10289253;28;20068;-77
2023/03/23 06:02:56;;;;;;;12.27;11.18;;;;;;;9.82;100.00;99978.19;10284816;28;20578;-77
2023/03/23 06:07:53;;;;;;;14.35;12.02;;;;;;;9.83;100.00;99987.97;10300367;28;20502;-77
2023/03/23 06:12:50;;;;;;;12.38;11.18;;;;;;;9.79;100.00;99978.81;10291827;28;20055;-77
2023/03/23 06:17:45;;;;;;;12.25;11.13;;;;;;;9.81;100.00;99982.03;10267211;28;20048;-76
2023/03/23 06:22:41;;;;;;;15.23;10.93;;;;;;;9.81;100.00;99981.22;10310807;28;20117;-77
2023/03/23 06:27:36;;;;;;;11.43;10.10;;;;;;;9.72;100.00;99956.72;10306672;28;20092;-77
2023/03/23 06:32:33;;;;;;;10.82;9.77;;;;;;;9.72;100.00;99984.00;10308597;28;20133;-77
2023/03/23 06:37:29;;;;;;;14.18;11.48;;;;;;;9.83;100.00;99984.44;10288114;28;20055;-76
2023/03/23 06:42:24;;;;;;;11.43;10.27;;;;;;;9.81;100.00;99982.03;10301681;28;20065;-76
2023/03/23 06:47:20;;;;;;;10.65;9.65;;;;;;;10.06;100.00;99982.19;10300536;28;20068;-76
2023/03/23 06:52:15;;;;;;;11.35;10.25;;;;;;;10.15;100.00;99991.13;10313747;28;20044;-76
2023/03/23 06:57:11;;;;;;;10.43;9.43;;;;;;;10.26;100.00;99980.63;10299597;28;20047;-76
2023/03/23 07:02:11;;;;;;;10.52;9.38;;;;;;;10.36;100.00;99973.97;10304690;28;20455;-77
2023/03/23 07:07:10;;;;;;;10.57;8.98;;;;;;;10.42;100.00;99969.88;10297371;28;20044;-76
2023/03/23 07:12:06;;;;;;;9.00;8.10;;;;;;;10.44;100.00;99970.34;10292741;28;20037;-76
2023/03/23 07:17:03;;;;;;;9.55;7.65;;;;;;;10.50;100.00;99963.56;10304172;28;20052;-76
2023/03/23 07:21:58;;;;;;;9.00;8.10;;;;;;;10.58;100.00;99972.81;10307424;28;20041;-76
2023/03/23 07:26:54;;;;;;;9.57;7.82;;;;;;;10.69;100.00;99987.66;10293213;28;20106;-76
2023/03/23 07:31:49;;;;;;;8.98;7.97;;;;;;;10.80;100.00;99982.59;10314289;28;20806;-75
2023/03/23 07:36:46;;;;;;;9.98;7.05;;;;;;;10.94;100.00;99980.34;10304553;28;20072;-75
2023/03/23 07:41:41;;;;;;;8.75;7.20;;;;;;;11.13;100.00;99975.13;10304057;28;20072;-75
2023/03/23 07:46:37;;;;;;;7.57;6.80;;;;;;;11.36;100.00;99978.22;10302064;28;20493;-76
2023/03/23 07:51:32;;;;;;;11.68;6.18;;;;;;;11.31;100.00;99996.84;10301361;28;20048;-76
2023/03/23 07:56:28;;;;;;;8.55;7.45;;;;;;;10.81;100.00;100003.31;10287623;28;20068;-76
2023/03/23 08:01:24;;;;;;;9.35;7.90;;;;;;;10.68;100.00;100014.22;10317880;28;20044;-76
2023/03/23 08:06:19;;;;;;;10.45;8.00;;;;;;;10.62;100.00;100010.06;10294112;28;20454;-75
2023/03/23 08:11:16;;;;;;;8.27;7.57;;;;;;;10.71;100.00;100023.66;10289874;28;20094;-76
2023/03/23 08:16:13;;;;;;;9.48;8.57;;;;;;;10.57;100.00;100018.47;10303573;28;20044;-76
2023/03/23 08:21:09;;;;;;;9.13;8.02;;;;;;;10.47;100.00;100024.38;10289966;28;20079;-77
2023/03/23 08:26:08;;;;;;;9.48;7.82;;;;;;;10.46;100.00;100031.75;10308932;28;20064;-75
2023/03/23 08:31:11;;;;;;;9.43;8.52;;;;;;;10.37;100.00;100093.06;10280599;28;20064;-75
2023/03/23 08:36:07;;;;;;;12.15;5.70;;;;;;;9.89;100.00;100081.44;10288112;28;20045;-75
2023/03/23 08:41:05;;;;;;;10.35;6.68;;;;;;;9.81;100.00;100058.47;10310004;28;20094;-74
2023/03/23 08:46:06;;;;;;;7.10;6.40;;;;;;;9.78;100.00;100047.44;10293996;28;20053;-75
2023/03/23 08:51:03;;;;;;;5.93;5.32;;;;;;;9.94;100.00;100056.66;10275502;28;20056;-74
2023/03/23 08:56:07;;;;;;;6.13;5.15;;;;;;;10.11;100.00;100074.88;10307092;28;20055;-75
2023/03/23 09:01:04;;;;;;;6.15;5.55;;;;;;;10.18;100.00;100063.44;10289542;28;20128;-75
2023/03/23 09:06:02;;;;;;;6.47;5.25;;;;;;;10.41;100.00;100063.94;10304745;28;20125;-75
2023/03/23 09:11:08;;;;;;;8.30;5.88;;;;;;;10.70;100.00;100069.34;10305465;28;20391;-74
2023/03/23 09:16:05;;;;;;;9.23;5.70;;;;;;;10.82;100.00;100073.28;10288117;28;20041;-75
2023/03/23 09:21:02;;;;;;;9.27;5.53;;;;;;;10.52;100.00;100082.34;10292939;28;20067;-74
2023/03/23 09:26:00;;;;;;;7.50;4.97;;;;;;;10.48;100.00;100069.69;10288083;28;20045;-75
2023/03/23 09:30:58;;;;;;;10.55;5.50;;;;;;;10.44;100.00;100068.75;10296788;28;20044;-75
2023/03/23 09:35:54;;;;;;;10.82;5.97;;;;;;;10.49;100.00;100071.31;10301271;28;20052;-76
2023/03/23 09:41:03;;;;;;;9.82;5.00;;;;;;;10.43;100.00;100078.09;10287473;28;20123;-76
2023/03/23 09:46:24;;;;;;;11.75;5.05;;;;;;;10.47;100.00;100095.44;10305654;28;20040;-74
2023/03/23 09:51:42;;;;;;;15.68;5.28;;;;;;;10.61;100.00;100085.03;10316951;28;20498;-76
2023/03/23 09:56:38;;;;;;;11.05;5.20;;;;;;;10.67;100.00;100093.81;10282755;28;20045;-76
2023/03/23 10:01:44;;;;;;;13.57;5.22;;;;;;;11.12;100.00;100096.66;10306914;28;20044;-76
2023/03/23 10:06:39;;;;;;;9.60;5.15;;;;;;;11.36;100.00;100100.59;10284364;28;20123;-75
2023/03/23 10:12:00;;;;;;;14.15;5.47;;;;;;;11.29;100.00;100112.09;10291224;28;20045;-75
2023/03/23 10:17:00;;;;;;;13.18;5.63;;;;;;;11.46;100.00;100102.91;10302357;28;20044;-75
2023/03/23 10:22:11;;;;;;;14.45;5.90;;;;;;;11.62;100.00;100110.47;10288858;28;20045;-75
2023/03/23 10:27:23;;;;;;;11.35;5.90;;;;;;;11.38;100.00;100118.28;10299148;28;20036;-75
2023/03/23 10:32:36;;;;;;;8.98;5.55;;;;;;;11.46;100.00;100130.28;10299050;28;20048;-75
2023/03/23 10:37:36;;;;;;;;;;;;;;;11.57;100.00;100109.53;10283016;28;20114;-75
2023/03/23 10:42:35;;;;;;;13.30;7.03;;;;;;;11.94;100.00;100117.84;10305652;28;19963;-75
2023/03/23 10:47:31;;;;;;;12.85;6.30;;;;;;;11.98;100.00;100135.22;10287262;28;20498;-75
2023/03/23 10:52:35;;;;;;;12.88;6.30;;;;;;;11.57;100.00;100144.34;10291318;28;20075;-75
2023/03/23 10:57:33;;;;;;;10.63;6.32;;;;;;;11.61;100.00;100141.75;10294183;28;20060;-75
2023/03/23 11:02:29;;;;;;;10.82;6.40;;;;;;;11.65;100.00;100142.66;10295669;28;20047;-75
2023/03/23 11:07:29;;;;;;;13.02;6.80;;;;;;;11.86;100.00;100137.09;10308460;28;20048;-75
2023/03/23 11:12:25;;;;;;;15.18;6.47;;;;;;;12.00;100.00;100146.63;10309146;28;20124;-75
2023/03/23 11:17:24;;;;;;;16.67;7.50;;;;;;;12.08;100.00;100144.91;10297301;28;20041;-75
2023/03/23 11:22:28;;;;;;;14.80;6.70;;;;;;;12.33;100.00;100142.97;10317868;28;20045;-75
2023/03/23 11:27:24;;;;;;;15.57;6.53;;;;;;;12.13;100.00;100146.63;10299722;28;20049;-75
2023/03/23 11:32:26;;;;;;;14.07;7.30;;;;;;;11.98;100.00;100162.59;10299628;28;20053;-75
2023/03/23 11:37:46;;;;;;;12.07;7.23;;;;;;;11.88;100.00;100135.66;10308331;28;20582;-75
2023/03/23 11:42:57;;;;;;;11.57;7.15;;;;;;;12.03;100.00;100161.59;10294911;28;20139;-75
2023/03/23 11:48:15;;;;;;;14.65;7.00;;;;;;;11.85;100.00;100151.94;10292005;28;20052;-75
2023/03/23 11:53:30;;;;;;;17.67;8.32;;;;;;;12.10;100.00;100159.06;10306181;28;20043;-75
2023/03/23 11:58:32;;;;;;;12.48;7.95;;;;;;;11.82;100.00;100175.34;10301574;28;20044;-74
2023/03/23 12:03:42;;;;;;;11.93;7.60;;;;;;;11.67;100.00;100200.63;10317889;28;20060;-76
2023/03/23 12:08:47;;;;;;;17.15;7.10;;;;;;;11.67;100.00;100189.66;10292326;28;20632;-75
2023/03/23 12:13:52;;;;;;;18.38;7.65;;;;;;;11.67;100.00;100178.72;10294868;28;20047;-75
2023/03/23 12:19:00;;;;;;;17.77;6.65;;;;;;;11.64;100.00;100168.44;10296314;28;20045;-75
2023/03/23 12:24:15;;;;;;;12.32;6.55;;;;;;;11.11;100.00;100212.69;10291093;28;20510;-75
2023/03/23 12:29:35;;;;;;;10.48;7.25;;;;;;;10.86;100.00;100214.50;10293269;28;20040;-75
2023/03/23 12:34:48;;;;;;;14.85;8.70;;;;;;;10.77;100.00;100196.53;10302094;28;20086;-76
2023/03/23 12:40:08;;;;;;;15.32;8.48;;;;;;;10.92;100.00;100196.75;10292764;28;20037;-75
2023/03/23 12:45:19;;;;;;;16.00;7.70;;;;;;;10.90;100.00;100200.94;10305937;28;20070;-76
2023/03/23 12:50:33;;;;;;;13.98;7.72;;;;;;;11.11;100.00;100190.81;10294733;28;20044;-75
2023/03/23 12:55:41;;;;;;;16.33;6.57;;;;;;;11.23;100.00;100186.53;10295010;28;20049;-75
2023/03/23 13:01:13;;;;;;;15.95;8.43;;;;;;;11.33;100.00;100192.41;10290778;28;20037;-76
2023/03/23 13:06:26;;;;;;;10.05;6.55;;;;;;;13.92;100.00;100179.28;10291568;28;20045;-75
2023/03/23 13:11:32;;;;;;;15.20;8.10;;;;;;;15.92;100.00;100122.22;10285005;28;20036;-75
2023/03/23 13:16:36;;;;;;;11.57;7.03;;;;;;;17.00;100.00;100119.06;10277693;28;20044;-75
2023/03/23 13:21:38;;;;;;;15.93;7.35;;;;;;;14.37;100.00;100134.03;10294470;28;20498;-75
2023/03/23 13:26:39;;;;;;;12.63;7.57;;;;;;;16.88;100.00;100122.06;10295858;28;20072;-75
2023/03/23 13:31:37;;;;;;;16.27;6.93;;;;;;;15.65;100.00;100106.75;10283734;28;20047;-75
2023/03/23 13:36:45;;;;;;;12.80;7.03;;;;;;;15.40;100.00;100111.81;10305857;28;20075;-75
2023/03/23 13:42:08;;;;;;;12.25;7.30;;;;;;;14.99;100.00;100108.66;10309189;28;20155;-75
2023/03/23 13:47:08;;;;;;;;;;;;;;;13.43;100.00;100124.63;10278553;28;20414;-75
2023/03/23 13:52:17;;;;;;;11.23;7.28;;;;;;;13.03;100.00;100122.72;10282748;28;20443;-74
2023/03/23 13:57:24;;;;;;;8.52;6.47;;;;;;;13.01;100.00;100103.84;10296238;28;20062;-75
2023/03/23 14:02:39;;;;;;;9.05;6.68;;;;;;;12.66;100.00;100131.06;10290321;28;20171;-75
2023/03/23 14:07:53;;;;;;;9.10;5.68;;;;;;;11.38;100.00;100183.19;10291556;28;20383;-74
2023/03/23 14:12:52;;;;;;;5.82;5.00;;;;;;;9.35;100.00;100232.00;10291123;28;20037;-75
2023/03/23 14:17:49;;;;;;;25.85;7.18;;;;;;;8.93;100.00;100258.88;10281693;28;20503;-75
2023/03/23 14:22:45;;;;;;;7.25;5.22;;;;;;;8.86;100.00;100234.03;10275937;28;20456;-74
2023/03/23 14:27:45;;;;;;;8.13;5.82;;;;;;;9.15;100.00;100208.09;10287151;28;20060;-75
2023/03/23 14:32:41;;;;;;;14.38;5.63;;;;;;;9.55;100.00;100213.34;10296107;28;20520;-75
2023/03/23 14:37:37;;;;;;;6.82;4.47;;;;;;;11.81;100.00;100195.63;10297331;28;20033;-75
2023/03/23 14:42:35;;;;;;;9.95;5.18;;;;;;;13.00;100.00;100184.59;10296329;28;20045;-75
2023/03/23 14:47:34;;;;;;;7.07;4.75;;;;;;;13.33;100.00;100163.59;10297963;28;20047;-75
2023/03/23 14:52:35;;;;;;;7.57;4.70;;;;;;;13.53;100.00;100179.06;10304129;28;20059;-75
2023/03/23 14:57:31;;;;;;;7.10;4.97;;;;;;;13.79;100.00;100186.00;10297660;28;20033;-75
2023/03/23 15:02:35;;;;;;;5.15;4.65;;;;;;;13.46;100.00;100173.38;10310158;28;20054;-75
2023/03/23 15:07:34;;;;;;;9.18;5.43;;;;;;;13.61;100.00;100175.34;10308998;28;20033;-75
2023/03/23 15:12:30;;;;;;;8.57;4.85;;;;;;;12.18;100.00;100202.03;10295879;28;20443;-75
2023/03/23 15:17:29;;;;;;;7.63;5.35;;;;;;;11.58;100.00;100217.94;10296104;28;20045;-75
2023/03/23 15:22:29;;;;;;;6.53;4.82;;;;;;;11.38;100.00;100210.56;10311622;28;20410;-75
2023/03/23 15:27:33;;;;;;;7.07;5.25;;;;;;;11.07;100.00;100230.94;10290249;28;20067;-76
2023/03/23 15:32:37;;;;;;;5.95;5.05;;;;;;;11.13;100.00;100242.47;10313765;28;20045;-74
2023/03/23 15:37:43;;;;;;;12.90;5.55;;;;;;;11.25;100.00;100233.53;10305919;28;20417;-74
2023/03/23 15:42:39;;;;;;;9.07;5.72;;;;;;;12.36;100.00;100237.44;10303445;28;20177;-76
2023/03/23 15:47:43;;;;;;;8.27;5.10;;;;;;;12.65;100.00;100233.69;10305965;28;20151;-76
2023/03/23 15:52:39;;;;;;;10.80;5.50;;;;;;;12.53;100.00;100225.44;10321357;28;20114;-76
2023/03/23 15:57:34;;;;;;;8.88;4.90;;;;;;;11.87;100.00;100224.44;10304707;28;20178;-76
2023/03/23 16:02:32;;;;;;;6.47;5.47;;;;;;;11.45;100.00;100232.72;10297251;28;20135;-76
2023/03/23 16:07:29;;;;;;;5.60;4.93;;;;;;;11.23;100.00;100249.47;10300920;28;20120;-76
2023/03/23 16:12:26;;;;;;;8.82;5.30;;;;;;;11.25;100.00;100256.22;10312330;28;20081;-75
2023/03/23 16:17:22;;;;;;;9.95;6.03;;;;;;;11.15;100.00;100262.09;10292131;28;20068;-75
2023/03/23 16:22:19;;;;;;;10.75;6.95;;;;;;;11.11;100.00;100280.28;10311428;28;20043;-76
2023/03/23 16:27:16;;;;;;;7.97;5.57;;;;;;;11.02;100.00;100274.88;10298867;28;20499;-77
2023/03/23 16:32:12;;;;;;;9.05;5.40;;;;;;;11.97;100.00;100253.34;10305595;28;20122;-76
2023/03/23 16:37:10;;;;;;;9.75;6.07;;;;;;;12.05;100.00;100259.91;10302684;28;20520;-76
2023/03/23 16:42:07;;;;;;;6.35;5.35;;;;;;;11.59;100.00;100255.13;10298715;28;20498;-75
2023/03/23 16:47:03;;;;;;;10.25;6.20;;;;;;;11.14;100.00;100268.72;10297010;28;20088;-76
2023/03/23 16:52:00;;;;;;;7.63;6.13;;;;;;;11.00;100.00;100255.28;10298654;28;20525;-76
2023/03/23 16:56:56;;;;;;;11.48;6.13;;;;;;;10.88;100.00;100225.88;10298229;28;20041;-76
2023/03/23 17:01:53;;;;;;;13.18;5.75;;;;;;;10.81;100.00;100220.13;10276414;28;20421;-73
2023/03/23 17:06:50;;;;;;;10.00;6.05;;;;;;;10.64;100.00;100214.78;10304025;28;20057;-73
2023/03/23 17:11:47;;;;;;;8.77;6.55;;;;;;;10.50;100.00;100232.22;10300968;28;20052;-74
2023/03/23 17:16:44;;;;;;;9.25;6.00;;;;;;;10.51;100.00;100239.31;10290203;28;20128;-74
2023/03/23 17:21:42;;;;;;;6.72;5.35;;;;;;;10.52;100.00;100246.34;10297281;28;20075;-74
2023/03/23 17:26:39;;;;;;;6.45;5.40;;;;;;;10.60;100.00;100252.13;10289870;28;20098;-74
2023/03/23 17:31:35;;;;;;;9.45;6.28;;;;;;;10.60;100.00;100252.91;10304148;28;20085;-75
2023/03/23 17:36:32;;;;;;;6.82;5.45;;;;;;;10.53;100.00;100258.09;10299648;28;20531;-74
2023/03/23 17:41:28;;;;;;;10.07;5.60;;;;;;;10.46;100.00;100263.25;10294928;28;20453;-74
2023/03/23 17:46:26;;;;;;;8.82;6.50;;;;;;;10.15;100.00;100272.50;10304572;28;20521;-74
2023/03/23 17:51:22;;;;;;;9.10;5.60;;;;;;;10.00;100.00;100283.94;10305187;28;20131;-75
2023/03/23 17:56:19;;;;;;;9.52;6.15;;;;;;;9.94;100.00;100285.25;10296893;28;20052;-74
2023/03/23 18:01:16;;;;;;;10.90;6.32;;;;;;;9.77;100.00;100297.81;10295236;28;20057;-75
2023/03/23 18:06:13;;;;;;;9.05;6.18;;;;;;;9.65;100.00;100289.44;10288614;28;20056;-74
2023/03/23 18:11:09;;;;;;;9.40;7.05;;;;;;;9.57;100.00;100293.00;10303085;28;20550;-75
2023/03/23 18:16:07;;;;;;;8.75;6.45;;;;;;;9.48;100.00;100301.97;10286297;28;20562;-75
2023/03/23 18:21:07;;;;;;;7.90;6.63;;;;;;;9.41;100.00;100307.09;10290207;28;20056;-74
2023/03/23 18:26:06;;;;;;;10.05;6.60;;;;;;;9.31;100.00;100329.25;10297777;28;20059;-75
2023/03/23 18:31:16;;;;;;;10.65;7.90;;;;;;;9.27;100.00;100311.91;10293683;28;20053;-75
2023/03/23 18:36:15;;;;;;;10.18;6.72;;;;;;;9.26;100.00;100318.50;10288953;28;20468;-75
2023/03/23 18:41:16;;;;;;;8.75;6.88;;;;;;;9.24;100.00;100315.28;10291114;28;20076;-75
2023/03/23 18:46:13;;;;;;;10.98;7.03;;;;;;;9.21;100.00;100319.44;10293550;28;20453;-74
2023/03/23 18:51:10;;;;;;;10.05;7.10;;;;;;;9.29;100.00;100331.50;10296066;28;20086;-75
2023/03/23 18:56:11;;;;;;;13.07;7.00;;;;;;;9.16;100.00;100322.31;10293709;28;20045;-75
2023/03/23 19:01:18;;;;;;;10.05;7.22;;;;;;;9.19;100.00;100318.13;10293382;28;20056;-74
2023/03/23 19:06:26;;;;;;;9.75;6.95;;;;;;;9.12;100.00;100315.06;10309264;28;20043;-75
2023/03/23 19:11:25;;;;;;;13.68;7.20;;;;;;;9.11;100.00;100325.19;10287161;28;20070;-75
2023/03/23 19:16:25;;;;;;;9.68;7.60;;;;;;;8.98;100.00;100328.84;10279310;28;20507;-75
2023/03/23 19:21:22;;;;;;;9.82;6.90;;;;;;;8.92;100.00;100325.47;10287674;28;20058;-74
2023/03/23 19:26:35;;;;;;;9.20;6.95;;;;;;;8.80;100.00;100319.81;10299908;28;20517;-74
2023/03/23 19:31:40;;;;;;;12.38;7.45;;;;;;;8.84;100.00;100318.03;10308754;28;20072;-75
2023/03/23 19:36:45;;;;;;;10.73;7.47;;;;;;;8.82;100.00;100323.03;10303681;28;20049;-73
2023/03/23 19:42:04;;;;;;;7.93;7.10;;;;;;;9.02;100.00;100322.44;10286371;28;20055;-74
2023/03/23 19:47:00;;;;;;;11.18;8.90;;;;;;;9.13;100.00;100327.59;10287981;28;20049;-71
2023/03/23 19:51:59;;;;;;;10.15;6.95;;;;;;;9.22;100.00;100325.69;10309846;28;20083;-73
2023/03/23 19:57:06;;;;;;;8.32;7.53;;;;;;;9.24;100.00;100323.47;10296822;28;20135;-72
2023/03/23 20:02:12;;;;;;;8.68;7.43;;;;;;;9.13;100.00;100316.69;10304090;28;20056;-77
2023/03/23 20:07:20;;;;;;;10.95;7.95;;;;;;;9.06;100.00;100312.50;10293855;28;20044;-76
2023/03/23 20:12:17;;;;;;;9.43;7.53;;;;;;;9.01;100.00;100309.13;10300993;28;20507;-75
2023/03/23 20:17:13;;;;;;;9.77;7.53;;;;;;;8.92;100.00;100300.91;10307810;28;20128;-76
2023/03/23 20:22:10;;;;;;;12.48;6.78;;;;;;;8.87;100.00;100292.91;10303513;28;20045;-75
2023/03/23 20:27:06;;;;;;;10.52;7.93;;;;;;;8.85;100.00;100301.38;10295454;28;20095;-74
2023/03/23 20:32:03;;;;;;;9.88;7.60;;;;;;;8.90;100.00;100303.16;10280982;28;20052;-73
2023/03/23 20:37:01;;;;;;;13.95;8.00;;;;;;;8.92;100.00;100303.66;10301680;28;20040;-75
2023/03/23 20:42:04;;;;;;;9.35;8.45;;;;;;;8.98;100.00;100294.22;10303252;28;20143;-76
2023/03/23 20:47:07;;;;;;;12.55;8.65;;;;;;;9.05;100.00;100283.63;10297152;28;20048;-76
2023/03/23 20:52:05;;;;;;;;;;;;;;;9.06;100.00;100285.22;10291210;28;20131;-73
2023/03/23 20:57:01;;;;;;;13.57;9.50;;;;;;;9.11;100.00;100275.28;10292431;28;19924;-77
2023/03/23 21:01:58;;;;;;;14.10;9.13;;;;;;;9.10;100.00;100284.59;10304606;28;20094;-74
2023/03/23 21:06:54;;;;;;;11.55;8.95;;;;;;;9.09;100.00;100272.09;10297759;28;20048;-78
2023/03/23 21:11:51;;;;;;;11.77;10.20;;;;;;;9.04;100.00;100276.56;10307696;28;20072;-78
2023/03/23 21:16:49;;;;;;;11.52;10.32;;;;;;;9.02;100.00;100278.00;10302988;28;20530;-76
2023/03/23 21:21:45;;;;;;;13.50;11.65;;;;;;;9.04;100.00;100270.31;10309540;28;20048;-75
2023/03/23 21:26:53;;;;;;;11.80;10.60;;;;;;;8.97;100.00;100270.78;10304096;28;20040;-75
2023/03/23 21:31:50;;;;;;;13.75;10.65;;;;;;;9.01;100.00;100271.75;10292536;28;20063;-73
2023/03/23 21:37:03;;;;;;;14.38;11.60;;;;;;;9.01;100.00;100277.19;10298163;28;20052;-76
2023/03/23 21:42:01;;;;;;;14.52;11.75;;;;;;;9.08;100.00;100254.13;10299390;28;20452;-77
2023/03/23 21:47:00;;;;;;;14.27;12.23;;;;;;;9.11;100.00;100253.47;10296862;28;20510;-77
2023/03/23 21:51:57;;;;;;;13.52;11.55;;;;;;;9.09;100.00;100239.34;10298029;28;20151;-77
2023/03/23 21:56:54;;;;;;;16.55;11.65;;;;;;;9.09;100.00;100247.53;10299008;28;20073;-77
2023/03/23 22:01:51;;;;;;;14.50;11.93;;;;;;;9.15;100.00;100238.09;10293699;28;20037;-77
2023/03/23 22:06:48;;;;;;;15.30;11.77;;;;;;;9.22;100.00;100230.22;10290093;28;20048;-78
2023/03/23 22:11:45;;;;;;;15.82;12.48;;;;;;;9.18;100.00;100224.59;10300412;28;20041;-77
2023/03/23 22:16:41;;;;;;;16.20;12.98;;;;;;;9.11;100.00;100218.03;10286469;28;20071;-77
2023/03/23 22:21:38;;;;;;;14.48;12.15;;;;;;;9.09;100.00;100206.63;10293053;28;20498;-74
2023/03/23 22:26:35;;;;;;;15.75;11.73;;;;;;;9.17;100.00;100208.56;10292046;28;20041;-74
2023/03/23 22:31:33;;;;;;;14.65;13.05;;;;;;;9.20;100.00;100197.00;10294433;28;20044;-79
2023/03/23 22:36:32;;;;;;;17.35;12.23;;;;;;;9.12;100.00;100184.16;10301788;28;20558;-77
2023/03/23 22:41:32;;;;;;;14.95;11.88;;;;;;;9.08;100.00;100175.03;10297322;28;20096;-77
2023/03/23 22:46:29;;;;;;;15.95;11.48;;;;;;;9.09;100.00;100157.53;10298505;28;20124;-74